DLH14D EDDC-LOWI
Flight info
| Callsign | DLH14D |
|---|---|
| Flight time | 1h 11m |
| Altitude | 34000 |
| Route | MAREM7E MAREM DCT YUJKI DCT PEMEL DCT RUDAP P31 DOSEL/N0427F350 M736 TULSI TULSI3A |
| Aircraft | A20N/M-SDE2E3FGHIRWXY/LB1 |
Departure
| Time | 2026-05-06 17:56 |
|---|---|
| Airport | Dresden Airport (EDDC) |
Arrival
| Time | 2026-05-06 19:07 |
|---|---|
| Airport | Innsbruck Airport (LOWI) |
| Time | Latitude | Longitude | Altitude | Speed | Heading |
|---|---|---|---|---|---|
| 2026-05-06 17:30 | 51.12595 | 13.76604 | 751 ft | 0 kts | 221° |
| 2026-05-06 17:47 | 51.12599 | 13.76610 | 750 ft | 2 kts | 221° |
| 2026-05-06 17:47 | 51.12613 | 13.76629 | 750 ft | 2 kts | 221° |
| 2026-05-06 17:47 | 51.12626 | 13.76646 | 749 ft | 3 kts | 221° |
| 2026-05-06 17:47 | 51.12645 | 13.76672 | 751 ft | 3 kts | 221° |
| 2026-05-06 17:48 | 51.12656 | 13.76688 | 748 ft | 2 kts | 221° |
| 2026-05-06 17:48 | 51.12661 | 13.76694 | 748 ft | 0 kts | 227° |
| 2026-05-06 17:48 | 51.12663 | 13.76697 | 748 ft | 0 kts | 232° |
| 2026-05-06 17:48 | 51.12664 | 13.76699 | 748 ft | 1 kts | 234° |
| 2026-05-06 17:49 | 51.12670 | 13.76716 | 750 ft | 4 kts | 262° |
| 2026-05-06 17:49 | 51.12668 | 13.76744 | 749 ft | 0 kts | 302° |
| 2026-05-06 17:50 | 51.12674 | 13.76730 | 750 ft | 3 kts | 303° |
| 2026-05-06 17:51 | 51.12696 | 13.76689 | 751 ft | 7 kts | 313° |
| 2026-05-06 17:51 | 51.12734 | 13.76613 | 749 ft | 11 kts | 309° |
| 2026-05-06 17:51 | 51.12790 | 13.76516 | 751 ft | 8 kts | 308° |
| 2026-05-06 17:51 | 51.12808 | 13.76428 | 748 ft | 10 kts | 244° |
| 2026-05-06 17:52 | 51.12751 | 13.76339 | 747 ft | 13 kts | 222° |
| 2026-05-06 17:52 | 51.12680 | 13.76237 | 751 ft | 13 kts | 220° |
| 2026-05-06 17:52 | 51.12609 | 13.76139 | 752 ft | 14 kts | 224° |
| 2026-05-06 17:52 | 51.12533 | 13.76034 | 756 ft | 14 kts | 224° |
| 2026-05-06 17:53 | 51.12464 | 13.75942 | 763 ft | 10 kts | 220° |
| 2026-05-06 17:53 | 51.12411 | 13.75871 | 763 ft | 7 kts | 221° |
| 2026-05-06 17:53 | 51.12400 | 13.75853 | 763 ft | 1 kts | 224° |
| 2026-05-06 17:53 | 51.12388 | 13.75834 | 764 ft | 4 kts | 225° |
| 2026-05-06 17:54 | 51.12386 | 13.75832 | 764 ft | 1 kts | 226° |
| 2026-05-06 17:54 | 51.12378 | 13.75816 | 764 ft | 3 kts | 233° |
| 2026-05-06 17:54 | 51.12371 | 13.75783 | 765 ft | 4 kts | 258° |
| 2026-05-06 17:54 | 51.12376 | 13.75724 | 765 ft | 7 kts | 286° |
| 2026-05-06 17:55 | 51.12402 | 13.75634 | 765 ft | 10 kts | 299° |
| 2026-05-06 17:55 | 51.12437 | 13.75546 | 767 ft | 8 kts | 309° |
| 2026-05-06 17:55 | 51.12473 | 13.75512 | 768 ft | 0 kts | 340° |
| 2026-05-06 17:55 | 51.12489 | 13.75513 | 768 ft | 12 kts | 8° |
| 2026-05-06 17:56 | 51.12721 | 13.75816 | 756 ft | 79 kts | 40° |
| 2026-05-06 17:56 | 51.13292 | 13.76591 | 744 ft | 134 kts | 41° |
| 2026-05-06 17:56 | 51.14096 | 13.77701 | 811 ft | 168 kts | 43° |
| 2026-05-06 17:56 | 51.14965 | 13.78953 | 1454 ft | 165 kts | 44° |
| 2026-05-06 17:57 | 51.15766 | 13.80167 | 2301 ft | 155 kts | 44° |
| 2026-05-06 17:57 | 51.16587 | 13.81391 | 2730 ft | 170 kts | 43° |
| 2026-05-06 17:57 | 51.17526 | 13.82726 | 3059 ft | 192 kts | 41° |
| 2026-05-06 17:57 | 51.18598 | 13.84201 | 3410 ft | 215 kts | 41° |
| 2026-05-06 17:58 | 51.19794 | 13.85852 | 3811 ft | 241 kts | 46° |
| 2026-05-06 17:58 | 51.20629 | 13.88236 | 4469 ft | 256 kts | 79° |
| 2026-05-06 17:58 | 51.20605 | 13.91131 | 5037 ft | 272 kts | 109° |
| 2026-05-06 17:58 | 51.19695 | 13.93706 | 5973 ft | 271 kts | 137° |
| 2026-05-06 17:59 | 51.18135 | 13.95306 | 6989 ft | 268 kts | 166° |
| 2026-05-06 17:59 | 51.16303 | 13.95521 | 8012 ft | 265 kts | 192° |
| 2026-05-06 17:59 | 51.14537 | 13.94679 | 9066 ft | 266 kts | 204° |
| 2026-05-06 17:59 | 51.12850 | 13.93436 | 10071 ft | 269 kts | 208° |
| 2026-05-06 18:00 | 51.11146 | 13.92063 | 10703 ft | 286 kts | 208° |
| 2026-05-06 18:00 | 51.09293 | 13.90586 | 11079 ft | 309 kts | 207° |
| 2026-05-06 18:00 | 51.07307 | 13.89059 | 11676 ft | 322 kts | 206° |
| 2026-05-06 18:00 | 51.05274 | 13.87536 | 12583 ft | 325 kts | 206° |
| 2026-05-06 18:01 | 51.03212 | 13.86013 | 13494 ft | 329 kts | 206° |
| 2026-05-06 18:01 | 51.01118 | 13.84474 | 14280 ft | 333 kts | 206° |
| 2026-05-06 18:01 | 50.99002 | 13.82922 | 15071 ft | 336 kts | 206° |
| 2026-05-06 18:01 | 50.96855 | 13.81348 | 15557 ft | 342 kts | 206° |
| 2026-05-06 18:02 | 50.94689 | 13.79760 | 15724 ft | 343 kts | 206° |
| 2026-05-06 18:02 | 50.92522 | 13.78173 | 15761 ft | 343 kts | 206° |
| 2026-05-06 18:02 | 50.90359 | 13.76590 | 15758 ft | 343 kts | 206° |
| 2026-05-06 18:02 | 50.88194 | 13.75004 | 15755 ft | 344 kts | 206° |
| 2026-05-06 18:03 | 50.86008 | 13.73406 | 16100 ft | 348 kts | 206° |
| 2026-05-06 18:03 | 50.83815 | 13.71804 | 17022 ft | 347 kts | 206° |
| 2026-05-06 18:03 | 50.81617 | 13.70198 | 17793 ft | 351 kts | 206° |
| 2026-05-06 18:03 | 50.79412 | 13.68589 | 18445 ft | 355 kts | 206° |
| 2026-05-06 18:04 | 50.77140 | 13.66932 | 19186 ft | 356 kts | 206° |
| 2026-05-06 18:04 | 50.74911 | 13.65309 | 19889 ft | 358 kts | 206° |
| 2026-05-06 18:04 | 50.72617 | 13.63742 | 20554 ft | 362 kts | 201° |
| 2026-05-06 18:04 | 50.70195 | 13.62573 | 21221 ft | 366 kts | 195° |
| 2026-05-06 18:05 | 50.67680 | 13.61856 | 21901 ft | 369 kts | 191° |
| 2026-05-06 18:05 | 50.65127 | 13.61245 | 22549 ft | 373 kts | 191° |
| 2026-05-06 18:05 | 50.62549 | 13.60612 | 23193 ft | 376 kts | 191° |
| 2026-05-06 18:05 | 50.59952 | 13.59964 | 23762 ft | 379 kts | 191° |
| 2026-05-06 18:06 | 50.57342 | 13.59307 | 24303 ft | 381 kts | 191° |
| 2026-05-06 18:06 | 50.54711 | 13.58643 | 24829 ft | 384 kts | 191° |
| 2026-05-06 18:06 | 50.52068 | 13.57976 | 25382 ft | 385 kts | 191° |
| 2026-05-06 18:06 | 50.49413 | 13.57308 | 25884 ft | 388 kts | 192° |
| 2026-05-06 18:07 | 50.46740 | 13.56635 | 26370 ft | 391 kts | 192° |
| 2026-05-06 18:07 | 50.44044 | 13.55957 | 26838 ft | 394 kts | 192° |
| 2026-05-06 18:07 | 50.41331 | 13.55276 | 27297 ft | 396 kts | 192° |
| 2026-05-06 18:07 | 50.38597 | 13.54590 | 27749 ft | 399 kts | 192° |
| 2026-05-06 18:08 | 50.35849 | 13.53902 | 28177 ft | 402 kts | 192° |
| 2026-05-06 18:08 | 50.33117 | 13.53218 | 28587 ft | 404 kts | 192° |
| 2026-05-06 18:08 | 50.30322 | 13.52519 | 28996 ft | 407 kts | 192° |
| 2026-05-06 18:08 | 50.27520 | 13.51819 | 29397 ft | 409 kts | 192° |
| 2026-05-06 18:09 | 50.24704 | 13.51117 | 29792 ft | 411 kts | 192° |
| 2026-05-06 18:09 | 50.21913 | 13.50422 | 30130 ft | 414 kts | 192° |
| 2026-05-06 18:09 | 50.19079 | 13.49717 | 30487 ft | 415 kts | 192° |
| 2026-05-06 18:09 | 50.16216 | 13.49005 | 30820 ft | 418 kts | 192° |
| 2026-05-06 18:10 | 50.13336 | 13.48291 | 31226 ft | 418 kts | 192° |
| 2026-05-06 18:10 | 50.10464 | 13.47580 | 31676 ft | 418 kts | 192° |
| 2026-05-06 18:10 | 50.07591 | 13.46871 | 32174 ft | 415 kts | 193° |
| 2026-05-06 18:10 | 50.04751 | 13.46171 | 32679 ft | 413 kts | 193° |
| 2026-05-06 18:11 | 50.01975 | 13.45485 | 33107 ft | 412 kts | 193° |
| 2026-05-06 18:11 | 49.99145 | 13.44787 | 33532 ft | 411 kts | 193° |
| 2026-05-06 18:11 | 49.96287 | 13.44082 | 33713 ft | 410 kts | 193° |
| 2026-05-06 18:11 | 49.93480 | 13.43391 | 33737 ft | 408 kts | 193° |
| 2026-05-06 18:12 | 49.87867 | 13.42011 | 33743 ft | 408 kts | 193° |
| 2026-05-06 18:12 | 49.82307 | 13.40648 | 33744 ft | 406 kts | 193° |
| 2026-05-06 18:13 | 49.76717 | 13.39281 | 33744 ft | 407 kts | 193° |
| 2026-05-06 18:13 | 49.71117 | 13.37914 | 33745 ft | 407 kts | 193° |
| 2026-05-06 18:14 | 49.65528 | 13.36553 | 33743 ft | 406 kts | 193° |
| 2026-05-06 18:14 | 49.59966 | 13.35203 | 33755 ft | 406 kts | 193° |
| 2026-05-06 18:15 | 49.54460 | 13.33868 | 33751 ft | 405 kts | 193° |
| 2026-05-06 18:15 | 49.48885 | 13.32518 | 33747 ft | 405 kts | 193° |
| 2026-05-06 18:16 | 49.43419 | 13.31194 | 33742 ft | 404 kts | 193° |
| 2026-05-06 18:16 | 49.37896 | 13.29855 | 33738 ft | 398 kts | 193° |
| 2026-05-06 18:17 | 49.32459 | 13.28544 | 33733 ft | 400 kts | 193° |
| 2026-05-06 18:17 | 49.29741 | 13.27891 | 33555 ft | 397 kts | 193° |
| 2026-05-06 18:17 | 49.27018 | 13.27214 | 32972 ft | 395 kts | 195° |
| 2026-05-06 18:18 | 49.24349 | 13.26205 | 32128 ft | 395 kts | 200° |
| 2026-05-06 18:18 | 49.21765 | 13.24758 | 31263 ft | 395 kts | 206° |
| 2026-05-06 18:18 | 49.19287 | 13.22929 | 30879 ft | 399 kts | 208° |
| 2026-05-06 18:18 | 49.16772 | 13.21013 | 30758 ft | 406 kts | 208° |
| 2026-05-06 18:19 | 49.11695 | 13.17202 | 30723 ft | 406 kts | 208° |
| 2026-05-06 18:19 | 49.06658 | 13.13453 | 30727 ft | 406 kts | 208° |
| 2026-05-06 18:20 | 49.01580 | 13.09679 | 30715 ft | 406 kts | 208° |
| 2026-05-06 18:20 | 48.96493 | 13.05904 | 30727 ft | 407 kts | 208° |
| 2026-05-06 18:21 | 48.91413 | 13.02145 | 30734 ft | 406 kts | 207° |
| 2026-05-06 18:21 | 48.86325 | 12.98387 | 30648 ft | 405 kts | 207° |
| 2026-05-06 18:22 | 48.83796 | 12.96522 | 30155 ft | 403 kts | 207° |
| 2026-05-06 18:22 | 48.81271 | 12.94661 | 29427 ft | 403 kts | 207° |
| 2026-05-06 18:22 | 48.78746 | 12.92803 | 28683 ft | 400 kts | 207° |
| 2026-05-06 18:22 | 48.76240 | 12.90957 | 27874 ft | 400 kts | 208° |
| 2026-05-06 18:23 | 48.73835 | 12.88892 | 27241 ft | 395 kts | 213° |
| 2026-05-06 18:23 | 48.71617 | 12.86471 | 26591 ft | 390 kts | 219° |
| 2026-05-06 18:23 | 48.69595 | 12.83758 | 25951 ft | 387 kts | 223° |
| 2026-05-06 18:23 | 48.67625 | 12.80995 | 25319 ft | 384 kts | 223° |
| 2026-05-06 18:24 | 48.65665 | 12.78261 | 24702 ft | 381 kts | 223° |
| 2026-05-06 18:24 | 48.63720 | 12.75560 | 24151 ft | 378 kts | 223° |
| 2026-05-06 18:24 | 48.61807 | 12.72912 | 23872 ft | 372 kts | 223° |
| 2026-05-06 18:24 | 48.59884 | 12.70255 | 23756 ft | 378 kts | 223° |
| 2026-05-06 18:25 | 48.57931 | 12.67551 | 23765 ft | 382 kts | 223° |
| 2026-05-06 18:25 | 48.55978 | 12.64840 | 23768 ft | 381 kts | 223° |
| 2026-05-06 18:25 | 48.54028 | 12.62134 | 23775 ft | 381 kts | 223° |
| 2026-05-06 18:25 | 48.52103 | 12.59466 | 23768 ft | 381 kts | 223° |
| 2026-05-06 18:26 | 48.50149 | 12.56762 | 23774 ft | 381 kts | 223° |
| 2026-05-06 18:26 | 48.48196 | 12.54063 | 23784 ft | 381 kts | 223° |
| 2026-05-06 18:26 | 48.46242 | 12.51367 | 23796 ft | 381 kts | 223° |
| 2026-05-06 18:26 | 48.44284 | 12.48668 | 23797 ft | 381 kts | 223° |
| 2026-05-06 18:27 | 48.42313 | 12.46001 | 23805 ft | 381 kts | 221° |
| 2026-05-06 18:27 | 48.40289 | 12.43410 | 23803 ft | 381 kts | 220° |
| 2026-05-06 18:27 | 48.38261 | 12.40859 | 23807 ft | 379 kts | 220° |
| 2026-05-06 18:27 | 48.36240 | 12.38314 | 23809 ft | 379 kts | 220° |
| 2026-05-06 18:28 | 48.34223 | 12.35763 | 23810 ft | 379 kts | 220° |
| 2026-05-06 18:28 | 48.32207 | 12.33205 | 23812 ft | 379 kts | 220° |
| 2026-05-06 18:28 | 48.30196 | 12.30649 | 23811 ft | 379 kts | 220° |
| 2026-05-06 18:28 | 48.28180 | 12.28087 | 23812 ft | 379 kts | 220° |
| 2026-05-06 18:29 | 48.26164 | 12.25528 | 23814 ft | 379 kts | 220° |
| 2026-05-06 18:29 | 48.24153 | 12.22978 | 23824 ft | 379 kts | 220° |
| 2026-05-06 18:29 | 48.22135 | 12.20422 | 23824 ft | 379 kts | 220° |
| 2026-05-06 18:29 | 48.20113 | 12.17864 | 23825 ft | 379 kts | 220° |
| 2026-05-06 18:30 | 48.18778 | 12.16177 | 23826 ft | 379 kts | 220° |
| 2026-05-06 18:30 | 48.16764 | 12.13633 | 23831 ft | 379 kts | 220° |
| 2026-05-06 18:30 | 48.14062 | 12.10223 | 23830 ft | 379 kts | 220° |
| 2026-05-06 18:30 | 48.12730 | 12.08546 | 23789 ft | 377 kts | 220° |
| 2026-05-06 18:31 | 48.10721 | 12.06016 | 23455 ft | 376 kts | 220° |
| 2026-05-06 18:31 | 48.08721 | 12.03500 | 22883 ft | 374 kts | 220° |
| 2026-05-06 18:31 | 48.06737 | 12.01007 | 22259 ft | 370 kts | 220° |
| 2026-05-06 18:31 | 48.04768 | 11.98536 | 21640 ft | 367 kts | 220° |
| 2026-05-06 18:32 | 48.02811 | 11.96081 | 20841 ft | 370 kts | 220° |
| 2026-05-06 18:32 | 48.00846 | 11.93618 | 20292 ft | 365 kts | 219° |
| 2026-05-06 18:32 | 47.98937 | 11.91230 | 19955 ft | 358 kts | 219° |
| 2026-05-06 18:32 | 47.97024 | 11.88838 | 19666 ft | 359 kts | 219° |
| 2026-05-06 18:33 | 47.95109 | 11.86448 | 19198 ft | 358 kts | 219° |
| 2026-05-06 18:33 | 47.93203 | 11.84071 | 18676 ft | 356 kts | 219° |
| 2026-05-06 18:33 | 47.91231 | 11.81867 | 18080 ft | 354 kts | 210° |
| 2026-05-06 18:33 | 47.88986 | 11.80397 | 17456 ft | 352 kts | 197° |
| 2026-05-06 18:34 | 47.86588 | 11.79785 | 16923 ft | 349 kts | 185° |
| 2026-05-06 18:34 | 47.84169 | 11.79655 | 16277 ft | 347 kts | 184° |
| 2026-05-06 18:34 | 47.81755 | 11.79530 | 15754 ft | 343 kts | 185° |
| 2026-05-06 18:34 | 47.79399 | 11.79403 | 15271 ft | 338 kts | 184° |
| 2026-05-06 18:35 | 47.77045 | 11.79273 | 14639 ft | 338 kts | 185° |
| 2026-05-06 18:35 | 47.74697 | 11.79143 | 14036 ft | 337 kts | 185° |
| 2026-05-06 18:35 | 47.72408 | 11.79041 | 13541 ft | 332 kts | 182° |
| 2026-05-06 18:35 | 47.70100 | 11.79351 | 13022 ft | 332 kts | 174° |
| 2026-05-06 18:36 | 47.67848 | 11.80154 | 12454 ft | 333 kts | 166° |
| 2026-05-06 18:36 | 47.65716 | 11.81442 | 11988 ft | 330 kts | 158° |
| 2026-05-06 18:36 | 47.63736 | 11.83178 | 11477 ft | 331 kts | 149° |
| 2026-05-06 18:36 | 47.61945 | 11.85333 | 11012 ft | 332 kts | 141° |
| 2026-05-06 18:37 | 47.60240 | 11.87597 | 10844 ft | 329 kts | 152° |
| 2026-05-06 18:37 | 47.58143 | 11.88841 | 10815 ft | 324 kts | 172° |
| 2026-05-06 18:37 | 47.55936 | 11.89524 | 10816 ft | 324 kts | 170° |
| 2026-05-06 18:37 | 47.53738 | 11.90235 | 10715 ft | 320 kts | 173° |
| 2026-05-06 18:38 | 47.51539 | 11.90748 | 10275 ft | 319 kts | 175° |
| 2026-05-06 18:38 | 47.49368 | 11.91205 | 10087 ft | 309 kts | 175° |
| 2026-05-06 18:38 | 47.47318 | 11.91929 | 9962 ft | 299 kts | 164° |
| 2026-05-06 18:38 | 47.45387 | 11.92857 | 9853 ft | 283 kts | 172° |
| 2026-05-06 18:39 | 47.43493 | 11.93167 | 9731 ft | 266 kts | 181° |
| 2026-05-06 18:39 | 47.41690 | 11.93222 | 9628 ft | 251 kts | 189° |
| 2026-05-06 18:39 | 47.40121 | 11.92386 | 9528 ft | 234 kts | 217° |
| 2026-05-06 18:40 | 47.37928 | 11.89412 | 9293 ft | 194 kts | 216° |
| 2026-05-06 18:40 | 47.36869 | 11.88234 | 9364 ft | 190 kts | 216° |
| 2026-05-06 18:40 | 47.35820 | 11.87065 | 9309 ft | 188 kts | 216° |
| 2026-05-06 18:40 | 47.34773 | 11.85904 | 9313 ft | 189 kts | 216° |
| 2026-05-06 18:41 | 47.33780 | 11.84646 | 9306 ft | 187 kts | 228° |
| 2026-05-06 18:41 | 47.33249 | 11.82864 | 9316 ft | 196 kts | 251° |
| 2026-05-06 18:41 | 47.32921 | 11.80927 | 9325 ft | 197 kts | 253° |
| 2026-05-06 18:41 | 47.32617 | 11.78965 | 9309 ft | 194 kts | 253° |
| 2026-05-06 18:42 | 47.32321 | 11.77013 | 9313 ft | 198 kts | 255° |
| 2026-05-06 18:42 | 47.32028 | 11.75071 | 9309 ft | 195 kts | 254° |
| 2026-05-06 18:42 | 47.31730 | 11.73079 | 9311 ft | 197 kts | 254° |
| 2026-05-06 18:42 | 47.31447 | 11.71184 | 9237 ft | 190 kts | 253° |
| 2026-05-06 18:43 | 47.31161 | 11.69287 | 8806 ft | 191 kts | 253° |
| 2026-05-06 18:43 | 47.30867 | 11.67348 | 8394 ft | 197 kts | 255° |
| 2026-05-06 18:43 | 47.30569 | 11.65352 | 8411 ft | 201 kts | 254° |
| 2026-05-06 18:43 | 47.30268 | 11.63350 | 8940 ft | 198 kts | 254° |
| 2026-05-06 18:44 | 47.29972 | 11.61382 | 9383 ft | 198 kts | 253° |
| 2026-05-06 18:44 | 47.29674 | 11.59402 | 9379 ft | 196 kts | 254° |
| 2026-05-06 18:44 | 47.29383 | 11.57471 | 9088 ft | 192 kts | 253° |
| 2026-05-06 18:44 | 47.29095 | 11.55562 | 8519 ft | 190 kts | 254° |
| 2026-05-06 18:45 | 47.28807 | 11.53649 | 7773 ft | 194 kts | 254° |
| 2026-05-06 18:45 | 47.28514 | 11.51705 | 7073 ft | 195 kts | 254° |
| 2026-05-06 18:45 | 47.28227 | 11.49792 | 6435 ft | 189 kts | 253° |
| 2026-05-06 18:45 | 47.27939 | 11.47884 | 5661 ft | 192 kts | 256° |
| 2026-05-06 18:46 | 47.27648 | 11.45949 | 4836 ft | 196 kts | 256° |
| 2026-05-06 18:46 | 47.27355 | 11.44001 | 4244 ft | 188 kts | 254° |
| 2026-05-06 18:46 | 47.27093 | 11.42264 | 4039 ft | 166 kts | 255° |
| 2026-05-06 18:46 | 47.26705 | 11.40593 | 4202 ft | 185 kts | 247° |
| 2026-05-06 18:47 | 47.26260 | 11.38688 | 4603 ft | 208 kts | 249° |
| 2026-05-06 18:47 | 47.25847 | 11.36540 | 4983 ft | 228 kts | 257° |
| 2026-05-06 18:47 | 47.25567 | 11.34116 | 5287 ft | 251 kts | 259° |
| 2026-05-06 18:47 | 47.25278 | 11.31507 | 5596 ft | 264 kts | 259° |
| 2026-05-06 18:48 | 47.25039 | 11.28782 | 5975 ft | 273 kts | 268° |
| 2026-05-06 18:48 | 47.25220 | 11.25987 | 6503 ft | 276 kts | 279° |
| 2026-05-06 18:48 | 47.25668 | 11.23230 | 7096 ft | 277 kts | 282° |
| 2026-05-06 18:48 | 47.26129 | 11.20475 | 7655 ft | 279 kts | 282° |
| 2026-05-06 18:49 | 47.26568 | 11.17712 | 8160 ft | 282 kts | 282° |
| 2026-05-06 18:49 | 47.27020 | 11.14895 | 8673 ft | 284 kts | 282° |
| 2026-05-06 18:49 | 47.27484 | 11.12059 | 9176 ft | 287 kts | 281° |
| 2026-05-06 18:49 | 47.27962 | 11.09178 | 9577 ft | 289 kts | 281° |
| 2026-05-06 18:50 | 47.28449 | 11.06310 | 10085 ft | 287 kts | 281° |
| 2026-05-06 18:50 | 47.28924 | 11.03462 | 10588 ft | 288 kts | 281° |
| 2026-05-06 18:50 | 47.29413 | 11.00576 | 11000 ft | 290 kts | 281° |
| 2026-05-06 18:50 | 47.29907 | 10.97699 | 11245 ft | 291 kts | 281° |
| 2026-05-06 18:51 | 47.30630 | 10.94916 | 11322 ft | 295 kts | 300° |
| 2026-05-06 18:51 | 47.32087 | 10.92757 | 11328 ft | 304 kts | 325° |
| 2026-05-06 18:51 | 47.34034 | 10.91381 | 11329 ft | 319 kts | 334° |
| 2026-05-06 18:51 | 47.36118 | 10.90057 | 11327 ft | 333 kts | 334° |
| 2026-05-06 18:52 | 47.38280 | 10.88682 | 11329 ft | 341 kts | 334° |
| 2026-05-06 18:52 | 47.40449 | 10.87284 | 11326 ft | 332 kts | 334° |
| 2026-05-06 18:52 | 47.42432 | 10.86019 | 11337 ft | 297 kts | 334° |
| 2026-05-06 18:52 | 47.44236 | 10.84884 | 11337 ft | 265 kts | 334° |
| 2026-05-06 18:53 | 47.45822 | 10.83873 | 11340 ft | 235 kts | 326° |
| 2026-05-06 18:53 | 47.46990 | 10.82206 | 11649 ft | 233 kts | 293° |
| 2026-05-06 18:53 | 47.47550 | 10.79967 | 11642 ft | 235 kts | 276° |
| 2026-05-06 18:53 | 47.47803 | 10.77599 | 11285 ft | 232 kts | 274° |
| 2026-05-06 18:54 | 47.48037 | 10.75221 | 10978 ft | 236 kts | 274° |
| 2026-05-06 18:54 | 47.48271 | 10.72832 | 11132 ft | 235 kts | 274° |
| 2026-05-06 18:54 | 47.48505 | 10.70471 | 11714 ft | 233 kts | 274° |
| 2026-05-06 18:54 | 47.48747 | 10.68124 | 12428 ft | 230 kts | 274° |
| 2026-05-06 18:55 | 47.48999 | 10.65771 | 12779 ft | 233 kts | 274° |
| 2026-05-06 18:55 | 47.49253 | 10.63409 | 12868 ft | 233 kts | 274° |
| 2026-05-06 18:55 | 47.49501 | 10.61050 | 12866 ft | 231 kts | 272° |
| 2026-05-06 18:55 | 47.49313 | 10.58771 | 12866 ft | 222 kts | 242° |
| 2026-05-06 18:56 | 47.48363 | 10.57037 | 12859 ft | 217 kts | 213° |
| 2026-05-06 18:56 | 47.46948 | 10.56279 | 12855 ft | 223 kts | 185° |
| 2026-05-06 18:56 | 47.45401 | 10.56332 | 12855 ft | 225 kts | 181° |
| 2026-05-06 18:56 | 47.43852 | 10.56412 | 12861 ft | 223 kts | 181° |
| 2026-05-06 18:57 | 47.42296 | 10.56487 | 12855 ft | 225 kts | 181° |
| 2026-05-06 18:57 | 47.40779 | 10.56992 | 12859 ft | 231 kts | 155° |
| 2026-05-06 18:57 | 47.39575 | 10.58631 | 12864 ft | 242 kts | 133° |
| 2026-05-06 18:57 | 47.38593 | 10.60648 | 12766 ft | 241 kts | 129° |
| 2026-05-06 18:58 | 47.37678 | 10.62656 | 12444 ft | 238 kts | 129° |
| 2026-05-06 18:58 | 47.36757 | 10.64675 | 11955 ft | 236 kts | 129° |
| 2026-05-06 18:58 | 47.35831 | 10.66658 | 11394 ft | 234 kts | 129° |
| 2026-05-06 18:58 | 47.34901 | 10.68614 | 10791 ft | 231 kts | 129° |
| 2026-05-06 18:59 | 47.33993 | 10.70508 | 10510 ft | 225 kts | 129° |
| 2026-05-06 18:59 | 47.33067 | 10.72419 | 10443 ft | 229 kts | 129° |
| 2026-05-06 18:59 | 47.32161 | 10.74282 | 10435 ft | 217 kts | 130° |
| 2026-05-06 18:59 | 47.31288 | 10.76086 | 10438 ft | 216 kts | 129° |
| 2026-05-06 19:00 | 47.30413 | 10.77897 | 10427 ft | 216 kts | 129° |
| 2026-05-06 19:00 | 47.29535 | 10.79733 | 10435 ft | 219 kts | 126° |
| 2026-05-06 19:00 | 47.29087 | 10.81886 | 10427 ft | 228 kts | 93° |
| 2026-05-06 19:00 | 47.29154 | 10.83452 | 10331 ft | 233 kts | 88° |
| 2026-05-06 19:01 | 47.29319 | 10.86599 | 10184 ft | 237 kts | 90° |
| 2026-05-06 19:01 | 47.29437 | 10.88955 | 10030 ft | 222 kts | 89° |
| 2026-05-06 19:01 | 47.29568 | 10.91220 | 9942 ft | 232 kts | 89° |
| 2026-05-06 19:01 | 47.29693 | 10.93567 | 9573 ft | 225 kts | 89° |
| 2026-05-06 19:02 | 47.29801 | 10.95841 | 9068 ft | 221 kts | 89° |
| 2026-05-06 19:02 | 47.29906 | 10.98084 | 8545 ft | 219 kts | 89° |
| 2026-05-06 19:02 | 47.30010 | 11.00320 | 8022 ft | 217 kts | 89° |
| 2026-05-06 19:02 | 47.30093 | 11.02527 | 7534 ft | 214 kts | 89° |
| 2026-05-06 19:03 | 47.30156 | 11.04712 | 7048 ft | 212 kts | 89° |
| 2026-05-06 19:03 | 47.30170 | 11.06862 | 6682 ft | 210 kts | 95° |
| 2026-05-06 19:03 | 47.29928 | 11.08988 | 6468 ft | 213 kts | 101° |
| 2026-05-06 19:03 | 47.29653 | 11.11095 | 6289 ft | 206 kts | 104° |
| 2026-05-06 19:04 | 47.29200 | 11.13096 | 5803 ft | 207 kts | 112° |
| 2026-05-06 19:04 | 47.28642 | 11.15028 | 5384 ft | 200 kts | 113° |
| 2026-05-06 19:04 | 47.28123 | 11.16831 | 5045 ft | 185 kts | 113° |
| 2026-05-06 19:04 | 47.27640 | 11.18576 | 4512 ft | 180 kts | 112° |
| 2026-05-06 19:05 | 47.27181 | 11.20203 | 4317 ft | 157 kts | 113° |
| 2026-05-06 19:05 | 47.26779 | 11.21599 | 4297 ft | 147 kts | 113° |
| 2026-05-06 19:05 | 47.26382 | 11.22972 | 4148 ft | 145 kts | 113° |
| 2026-05-06 19:05 | 47.25986 | 11.24352 | 3749 ft | 147 kts | 112° |
| 2026-05-06 19:06 | 47.25615 | 11.25763 | 3276 ft | 151 kts | 111° |
| 2026-05-06 19:06 | 47.25460 | 11.27263 | 2933 ft | 145 kts | 90° |
| 2026-05-06 19:06 | 47.25382 | 11.28780 | 2649 ft | 152 kts | 90° |
| 2026-05-06 19:06 | 47.25566 | 11.30275 | 2369 ft | 146 kts | 83° |
| 2026-05-06 19:07 | 47.25748 | 11.31694 | 2208 ft | 135 kts | 89° |
| 2026-05-06 19:07 | 47.25836 | 11.32578 | 2065 ft | 126 kts | 91° |
| 2026-05-06 19:07 | 47.25991 | 11.34156 | 1901 ft | 93 kts | 83° |
| 2026-05-06 19:07 | 47.26072 | 11.34903 | 1899 ft | 45 kts | 77° |
| 2026-05-06 19:08 | 47.26098 | 11.35141 | 1896 ft | 15 kts | 80° |
| 2026-05-06 19:08 | 47.26082 | 11.35244 | 1902 ft | 3 kts | 144° |
| 2026-05-06 19:08 | 47.26064 | 11.35256 | 1903 ft | 0 kts | 158° |
| 2026-05-06 19:08 | 47.26060 | 11.35258 | 1901 ft | 1 kts | 159° |
| 2026-05-06 19:09 | 47.26047 | 11.35264 | 1908 ft | 3 kts | 163° |
| 2026-05-06 19:09 | 47.26023 | 11.35270 | 1906 ft | 2 kts | 172° |
| 2026-05-06 19:09 | 47.26007 | 11.35273 | 1897 ft | 2 kts | 172° |
| 2026-05-06 19:09 | 47.26000 | 11.35275 | 1900 ft | 0 kts | 172° |
| 2026-05-06 19:10 | 47.25996 | 11.35276 | 1902 ft | 2 kts | 172° |
| 2026-05-06 19:10 | 47.25977 | 11.35280 | 1903 ft | 4 kts | 172° |
| 2026-05-06 19:11 | 47.25956 | 11.35283 | 1901 ft | 2 kts | 173° |
| 2026-05-06 19:11 | 47.25950 | 11.35284 | 1901 ft | 2 kts | 173° |
| 2026-05-06 19:11 | 47.25941 | 11.35286 | 1904 ft | 1 kts | 173° |
| 2026-05-06 19:11 | 47.25932 | 11.35288 | 1907 ft | 1 kts | 171° |
| 2026-05-06 19:12 | 47.25928 | 11.35289 | 1907 ft | 0 kts | 169° |
| 2026-05-06 19:12 | 47.25926 | 11.35294 | 1892 ft | 1 kts | 139° |
| 2026-05-06 19:12 | 47.25924 | 11.35306 | 1892 ft | 2 kts | 103° |
| 2026-05-06 19:12 | 47.25925 | 11.35337 | 1896 ft | 4 kts | 84° |
| 2026-05-06 19:13 | 47.25920 | 11.35366 | 1894 ft | 4 kts | 123° |
| 2026-05-06 19:13 | 47.25898 | 11.35373 | 1907 ft | 4 kts | 182° |
| 2026-05-06 19:13 | 47.25864 | 11.35379 | 1902 ft | 6 kts | 171° |